createdAt,value
2023-03-22T00:01:53.718Z,88.70
2023-03-22T00:04:24.052Z,88.90
2023-03-22T00:06:54.368Z,88.76
2023-03-22T00:09:24.977Z,88.88
2023-03-22T00:11:55.633Z,88.75
2023-03-22T00:14:26.245Z,88.76
2023-03-22T00:16:56.525Z,88.71
2023-03-22T00:19:29.068Z,88.71
2023-03-22T00:22:00.762Z,88.66
2023-03-22T00:24:31.077Z,88.80
2023-03-22T00:27:01.374Z,88.70
2023-03-22T00:29:31.642Z,88.78
2023-03-22T00:32:02.786Z,88.81
2023-03-22T00:34:34.708Z,88.78
2023-03-22T00:37:05.011Z,89.03
2023-03-22T00:39:35.253Z,89.08
2023-03-22T00:42:06.308Z,89.21
2023-03-22T00:44:36.844Z,89.30
2023-03-22T00:47:07.200Z,89.30
2023-03-22T00:49:38.518Z,89.23
2023-03-22T00:52:09.288Z,89.29
2023-03-22T00:54:39.882Z,89.30
2023-03-22T00:57:10.409Z,89.12
2023-03-22T00:59:42.995Z,89.23
2023-03-22T01:02:14.328Z,89.15
2023-03-22T01:04:46.303Z,89.16
2023-03-22T01:07:21.355Z,89.05
2023-03-22T01:09:52.158Z,89.12
2023-03-22T01:12:22.781Z,89.24
2023-03-22T01:14:53.137Z,89.21
2023-03-22T01:17:23.508Z,89.27
2023-03-22T01:19:53.906Z,89.25
2023-03-22T01:22:24.812Z,89.19
2023-03-22T01:24:55.171Z,89.26
2023-03-22T01:27:25.752Z,89.23
2023-03-22T01:29:56.472Z,89.30
2023-03-22T01:32:27.007Z,89.27
2023-03-22T01:34:57.447Z,89.33
2023-03-22T01:37:27.801Z,89.39
2023-03-22T01:39:58.143Z,89.33
2023-03-22T01:42:29.112Z,89.39
2023-03-22T01:45:39.498Z,89.43
2023-03-22T01:48:16.452Z,89.63
2023-03-22T01:50:50.600Z,89.56
2023-03-22T01:53:23.592Z,89.54
2023-03-22T01:55:56.773Z,89.71
2023-03-22T01:58:27.488Z,89.71
2023-03-22T02:00:57.958Z,89.88
2023-03-22T02:03:37.358Z,89.80
2023-03-22T02:06:09.146Z,89.77
2023-03-22T02:08:40.828Z,89.77
2023-03-22T02:11:18.005Z,89.77
2023-03-22T02:14:10.489Z,89.79
2023-03-22T02:16:50.271Z,89.67
2023-03-22T02:19:51.937Z,89.93
2023-03-22T02:22:39.358Z,89.78
2023-03-22T02:25:34.670Z,89.85
2023-03-22T02:28:19.879Z,89.83
2023-03-22T02:31:14.505Z,89.73
2023-03-22T02:34:14.541Z,89.73
2023-03-22T02:37:06.796Z,89.65
2023-03-22T02:39:47.635Z,89.68
2023-03-22T02:42:32.615Z,89.81
2023-03-22T02:45:07.660Z,89.81
2023-03-22T02:47:43.383Z,89.71
2023-03-22T02:50:22.538Z,89.69
2023-03-22T02:52:56.038Z,89.71
2023-03-22T02:55:31.780Z,89.75
2023-03-22T02:58:06.099Z,89.68
2023-03-22T03:00:39.592Z,89.55
2023-03-22T03:03:12.921Z,89.57
2023-03-22T03:05:46.897Z,89.43
2023-03-22T03:08:19.154Z,89.33
2023-03-22T03:10:50.324Z,89.31
2023-03-22T03:13:21.356Z,89.41
2023-03-22T03:15:57.291Z,89.32
2023-03-22T03:18:40.655Z,89.30
2023-03-22T03:21:18.867Z,89.33
2023-03-22T03:23:58.077Z,89.31
2023-03-22T03:26:35.792Z,89.30
2023-03-22T03:29:12.660Z,89.25
2023-03-22T03:31:46.878Z,89.19
2023-03-22T03:34:23.918Z,89.19
2023-03-22T03:36:59.828Z,89.25
2023-03-22T03:39:34.972Z,89.12
2023-03-22T03:42:07.750Z,89.26
2023-03-22T03:44:39.920Z,89.14
2023-03-22T03:47:12.024Z,89.12
2023-03-22T03:49:43.016Z,89.15
2023-03-22T03:52:14.062Z,89.14
2023-03-22T03:54:45.641Z,89.09
2023-03-22T03:57:16.566Z,89.17
2023-03-22T03:59:47.195Z,89.09
2023-03-22T04:02:17.758Z,89.19
2023-03-22T04:04:48.136Z,89.24
2023-03-22T04:07:18.589Z,89.10
2023-03-22T04:09:49.387Z,89.28
2023-03-22T04:12:19.709Z,89.09
2023-03-22T04:14:50.146Z,89.09
2023-03-22T04:17:20.816Z,89.00
2023-03-22T04:19:56.442Z,89.06
2023-03-22T04:22:27.180Z,88.95
2023-03-22T04:24:59.935Z,89.05
2023-03-22T04:27:30.695Z,88.89
2023-03-22T04:30:01.585Z,89.01
2023-03-22T04:32:32.215Z,89.01
2023-03-22T04:35:02.548Z,88.98
2023-03-22T04:37:33.745Z,88.91
2023-03-22T04:40:07.308Z,88.98
2023-03-22T04:42:38.022Z,88.94
2023-03-22T04:45:10.769Z,88.96
2023-03-22T04:47:41.215Z,89.05
2023-03-22T04:50:12.759Z,88.91
2023-03-22T04:52:43.088Z,88.95
2023-03-22T04:55:13.496Z,89.01
2023-03-22T04:57:43.795Z,89.04
2023-03-22T05:00:17.136Z,88.99
2023-03-22T05:02:48.510Z,89.14
2023-03-22T05:05:19.197Z,89.07
2023-03-22T05:07:49.704Z,89.19
2023-03-22T05:10:20.254Z,89.21
2023-03-22T05:12:51.152Z,89.18
2023-03-22T05:15:21.459Z,89.09
2023-03-22T05:17:52.322Z,89.15
2023-03-22T05:20:22.647Z,88.95
2023-03-22T05:22:56.784Z,89.05
2023-03-22T05:25:27.109Z,89.00
2023-03-22T05:28:01.907Z,89.01
2023-03-22T05:30:33.681Z,89.03
2023-03-22T05:33:05.743Z,89.00
2023-03-22T05:35:38.093Z,88.93
2023-03-22T05:38:10.222Z,88.96
2023-03-22T05:40:41.293Z,88.90
2023-03-22T05:43:11.937Z,88.82
2023-03-22T05:45:42.476Z,88.82
2023-03-22T05:48:13.483Z,88.79
2023-03-22T05:50:43.925Z,88.73
2023-03-22T05:53:14.539Z,88.65
2023-03-22T05:55:45.246Z,88.62
2023-03-22T05:58:18.950Z,88.55
2023-03-22T06:00:51.418Z,88.51
2023-03-22T06:03:22.378Z,88.49
2023-03-22T06:05:54.793Z,88.39
2023-03-22T06:08:26.677Z,88.42
2023-03-22T06:10:57.070Z,88.41
2023-03-22T06:13:27.448Z,88.30
2023-03-22T06:15:59.926Z,88.34
2023-03-22T06:18:31.447Z,88.40
2023-03-22T06:21:02.182Z,88.34
2023-03-22T06:23:32.895Z,88.31
2023-03-22T06:26:03.728Z,88.20
2023-03-22T06:28:34.083Z,88.25
2023-03-22T06:31:10.775Z,88.17
2023-03-22T06:33:41.103Z,88.19
2023-03-22T06:36:12.377Z,88.05
2023-03-22T06:38:43.029Z,88.08
2023-03-22T06:41:13.906Z,87.89
2023-03-22T06:43:44.928Z,87.78
2023-03-22T06:46:15.525Z,87.46
2023-03-22T06:48:45.864Z,87.45
2023-03-22T06:51:16.413Z,87.38
2023-03-22T06:53:46.855Z,87.44
2023-03-22T06:56:17.119Z,87.43
2023-03-22T06:58:47.760Z,87.33
2023-03-22T07:01:18.051Z,87.19
2023-03-22T07:03:48.554Z,87.25
2023-03-22T07:06:18.858Z,87.11
2023-03-22T07:08:50.882Z,87.05
2023-03-22T07:11:22.556Z,86.92
2023-03-22T07:13:53.535Z,86.66
2023-03-22T07:16:24.034Z,86.76
2023-03-22T07:18:55.843Z,86.60
2023-03-22T07:21:26.553Z,86.37
2023-03-22T07:23:58.109Z,86.28
2023-03-22T07:26:30.508Z,86.05
2023-03-22T07:29:01.126Z,86.11
2023-03-22T07:31:31.563Z,85.72
2023-03-22T07:34:01.884Z,85.58
2023-03-22T07:36:32.832Z,85.20
2023-03-22T07:39:05.894Z,85.09
2023-03-22T07:41:36.334Z,84.93
2023-03-22T07:44:17.210Z,84.87
2023-03-22T07:46:48.680Z,84.83
2023-03-22T07:49:19.789Z,84.73
2023-03-22T07:51:50.340Z,84.71
2023-03-22T07:54:32.903Z,84.68
2023-03-22T07:57:04.174Z,84.24
2023-03-22T07:59:34.882Z,83.91
2023-03-22T08:02:05.297Z,84.06
2023-03-22T08:04:35.493Z,84.01
2023-03-22T08:07:09.912Z,83.98
2023-03-22T08:09:40.695Z,83.95
2023-03-22T08:12:11.440Z,83.69
2023-03-22T08:14:41.723Z,83.49
2023-03-22T08:17:12.035Z,83.52
2023-03-22T08:19:42.571Z,83.53
2023-03-22T08:22:13.548Z,83.13
2023-03-22T08:24:44.082Z,82.97
2023-03-22T08:27:14.405Z,83.25
2023-03-22T08:29:44.847Z,82.98
2023-03-22T08:32:15.782Z,82.66
2023-03-22T08:34:46.697Z,82.47
2023-03-22T08:37:20.234Z,82.43
2023-03-22T08:39:50.603Z,82.27
2023-03-22T08:42:21.363Z,81.85
2023-03-22T08:44:52.558Z,81.74
2023-03-22T08:47:23.174Z,81.76
2023-03-22T08:49:53.499Z,81.21
2023-03-22T08:52:23.894Z,80.92
2023-03-22T08:54:54.472Z,80.76
2023-03-22T08:57:27.642Z,80.32
2023-03-22T08:59:58.646Z,80.23
2023-03-22T09:02:29.152Z,80.10
2023-03-22T09:04:59.560Z,80.12
2023-03-22T09:07:30.668Z,79.95
2023-03-22T09:10:00.910Z,79.98
2023-03-22T09:12:31.328Z,79.99
2023-03-22T09:15:01.642Z,79.50
2023-03-22T09:17:31.912Z,79.15
2023-03-22T09:20:12.077Z,78.58
2023-03-22T09:22:43.324Z,78.17
2023-03-22T09:25:13.996Z,78.42
2023-03-22T09:27:44.363Z,78.12
2023-03-22T09:30:16.259Z,78.06
2023-03-22T09:32:46.780Z,77.78
2023-03-22T09:35:17.204Z,77.54
2023-03-22T09:37:49.346Z,77.70
2023-03-22T09:40:20.456Z,77.57
2023-03-22T09:42:55.568Z,77.47
2023-03-22T09:45:37.882Z,77.33
2023-03-22T09:48:13.677Z,77.53
2023-03-22T09:50:48.345Z,77.34
2023-03-22T09:53:21.049Z,77.44
2023-03-22T09:55:56.292Z,77.65
2023-03-22T09:58:34.354Z,77.63
2023-03-22T10:01:09.006Z,77.96
2023-03-22T10:04:13.120Z,77.83
2023-03-22T10:06:49.162Z,77.31
2023-03-22T10:09:24.123Z,77.51
2023-03-22T10:12:05.108Z,78.02
2023-03-22T10:14:40.661Z,77.22
2023-03-22T10:17:15.865Z,76.80
2023-03-22T10:19:54.912Z,76.92
2023-03-22T10:22:30.060Z,76.63
2023-03-22T10:25:02.262Z,75.83
2023-03-22T10:27:34.991Z,75.38
2023-03-22T10:30:09.239Z,75.71
2023-03-22T10:32:57.017Z,75.69
2023-03-22T10:35:28.376Z,75.79
2023-03-22T10:38:01.895Z,75.15
2023-03-22T10:40:35.908Z,74.73
2023-03-22T10:43:12.432Z,74.43
2023-03-22T10:45:43.373Z,73.57
2023-03-22T10:48:23.806Z,73.70
2023-03-22T10:50:54.509Z,73.61
2023-03-22T10:53:31.893Z,73.14
2023-03-22T10:56:02.513Z,72.94
2023-03-22T10:58:34.758Z,72.62
2023-03-22T11:01:09.988Z,73.48
2023-03-22T11:03:42.830Z,73.52
2023-03-22T11:06:14.936Z,73.08
2023-03-22T11:08:48.977Z,73.97
2023-03-22T11:11:25.648Z,72.68
2023-03-22T11:14:03.218Z,72.12
2023-03-22T11:16:42.042Z,71.64
2023-03-22T11:19:20.705Z,71.62
2023-03-22T11:21:52.465Z,71.09
2023-03-22T11:24:25.292Z,70.06
2023-03-22T11:27:07.894Z,70.12
2023-03-22T11:29:48.001Z,70.21
2023-03-22T11:32:31.031Z,70.27
2023-03-22T11:35:13.177Z,70.49
2023-03-22T11:37:45.892Z,70.61
2023-03-22T11:40:19.380Z,69.66
2023-03-22T11:42:53.558Z,70.39
2023-03-22T11:45:30.400Z,70.32
2023-03-22T11:48:07.108Z,70.04
2023-03-22T11:50:41.078Z,69.67
2023-03-22T11:53:17.183Z,69.78
2023-03-22T11:55:49.816Z,69.47
2023-03-22T11:58:28.843Z,68.32
2023-03-22T12:01:03.121Z,68.16
2023-03-22T12:03:39.236Z,68.14
2023-03-22T12:06:21.802Z,66.91
2023-03-22T12:08:55.425Z,67.15
2023-03-22T12:11:30.474Z,66.91
2023-03-22T12:14:06.444Z,66.53
2023-03-22T12:16:48.438Z,66.06
2023-03-22T12:19:34.313Z,66.20
2023-03-22T12:22:09.975Z,66.19
2023-03-22T12:24:42.816Z,65.95
2023-03-22T12:27:21.574Z,65.72
2023-03-22T12:29:55.747Z,65.37
2023-03-22T12:32:29.608Z,64.57
2023-03-22T12:35:17.938Z,64.55
2023-03-22T12:37:52.449Z,64.96
2023-03-22T12:40:27.021Z,65.25
2023-03-22T12:43:12.885Z,65.32
2023-03-22T12:45:49.108Z,65.33
2023-03-22T12:48:26.539Z,64.54
2023-03-22T12:51:02.229Z,64.19
2023-03-22T12:53:42.543Z,64.63
2023-03-22T12:56:17.600Z,64.34
2023-03-22T12:58:53.554Z,63.47
2023-03-22T13:01:31.174Z,63.84
2023-03-22T13:04:22.383Z,62.65
2023-03-22T13:07:16.127Z,62.09
2023-03-22T13:09:48.728Z,62.36
2023-03-22T13:12:34.696Z,61.96
2023-03-22T13:15:28.500Z,62.88
2023-03-22T13:18:02.804Z,62.76
2023-03-22T13:20:35.057Z,62.16
2023-03-22T13:23:12.882Z,62.00
2023-03-22T13:26:02.349Z,61.71
2023-03-22T13:28:37.276Z,61.92
2023-03-22T13:31:08.417Z,61.49
2023-03-22T13:33:39.354Z,62.29
2023-03-22T13:36:25.258Z,62.61
2023-03-22T13:39:02.729Z,61.91
2023-03-22T13:41:34.907Z,61.58
2023-03-22T13:44:25.415Z,62.00
2023-03-22T13:47:01.446Z,61.53
2023-03-22T13:49:47.658Z,62.06
2023-03-22T13:52:34.848Z,62.33
2023-03-22T13:55:15.540Z,62.35
2023-03-22T13:57:58.930Z,62.15
2023-03-22T14:01:02.477Z,61.68
2023-03-22T14:03:36.313Z,61.77
2023-03-22T14:06:13.110Z,62.09
2023-03-22T14:08:45.257Z,62.46
2023-03-22T14:11:25.035Z,62.04
2023-03-22T14:14:00.481Z,61.87
2023-03-22T14:16:42.215Z,61.82
2023-03-22T14:19:20.248Z,61.56
